Time;durP1;ratioP1;P1;durP2;ratioP2;P2;SDS_P1;SDS_P2;PMS_P1;PMS_P2;Temp;Humidity;BMP_temperature;BMP_pressure;BME280_temperature;BME280_humidity;BME280_pressure;Samples;Min_cycle;Max_cycle;Signal;HPM_P1;HPM_P2
2023/03/03 00:02:17;;;;;;;;;;;;;;;0.36;91.59;100776.81;106330;1272;26674;-55
2023/03/03 00:04:46;;;;;;;;;;;;;;;0.39;91.63;100773.05;106345;1278;22547;-55
2023/03/03 00:07:21;;;;;;;;;;;;;;;0.42;91.57;100771.85;106424;1262;22744;-57
2023/03/03 00:09:51;;;;;;;;;;;;;;;0.44;91.64;100770.42;106271;1272;24216;-55
2023/03/03 00:12:23;;;;;;;;;;;;;;;0.41;91.71;100774.45;106375;1277;22518;-57
2023/03/03 00:14:52;;;;;;;;;;;;;;;0.38;91.92;100778.30;106457;1263;24219;-54
2023/03/03 00:17:23;;;;;;;;;;;;;;;0.36;92.03;100776.58;106355;1272;25552;-55
2023/03/03 00:19:53;;;;;;;;;;;;;;;0.35;92.04;100776.81;106467;1278;25464;-57
2023/03/03 00:22:29;;;;;;;;;;;;;;;0.36;92.10;100780.58;106315;1264;25351;-57
2023/03/03 00:25:01;;;;;;;;;;;;;;;0.36;92.20;100780.96;106338;1278;25224;-57
2023/03/03 00:27:32;;;;;;;;;;;;;;;0.34;92.24;100785.29;106478;1260;22491;-56
2023/03/03 00:30:01;;;;;;;;;;;;;;;0.33;92.11;100796.59;106333;1271;24947;-56
2023/03/03 00:32:38;;;;;;;;;;;;;;;0.33;92.15;100799.10;106369;1272;22715;-56
2023/03/03 00:35:22;;;;;;;;;;;;;;;0.33;92.24;100793.69;106328;1264;25514;-57
2023/03/03 00:37:54;;;;;;;;;;;;;;;0.32;92.42;100785.62;106473;1271;22710;-55
2023/03/03 00:40:25;;;;;;;;;;;;;;;0.31;92.24;100778.48;106371;1267;25491;-57
2023/03/03 00:42:55;;;;;;;;;;;;;;;0.32;92.33;100778.40;106401;1277;22513;-55
2023/03/03 00:45:29;;;;;;;;;;;;;;;0.33;92.30;100777.36;106409;1264;25595;-57
2023/03/03 00:47:58;;;;;;;;;;;;;;;0.30;92.39;100773.55;106380;1277;22654;-56
2023/03/03 00:50:29;;;;;;;;;;;;;;;0.28;92.38;100768.75;106310;1264;24215;-58
2023/03/03 00:53:06;;;;;;;;;;;;;;;0.25;92.37;100768.77;106418;1278;22502;-56
2023/03/03 00:55:35;;;;;;;;;;;;;;;0.26;92.51;100768.69;106394;1277;22494;-57
2023/03/03 00:58:05;;;;;;;;;;;;;;;0.25;92.55;100766.02;106518;1264;24365;-57
2023/03/03 01:00:35;;;;;;;;;;;;;;;0.27;92.62;100765.77;106286;1271;22554;-54
2023/03/03 01:03:05;;;;;;;;;;;;;;;0.25;92.63;100761.39;106480;1262;22968;-57
2023/03/03 01:05:35;;;;;;;;;;;;;;;0.22;92.71;100761.63;106263;1263;26507;-55
2023/03/03 01:08:05;;;;;;;;;;;;;;;0.17;92.64;100755.38;106295;1276;25528;-57
2023/03/03 01:10:36;;;;;;;;;;;;;;;0.16;92.69;100752.70;106443;1277;22965;-57
2023/03/03 01:13:06;;;;;;;;;;;;;;;0.15;92.70;100753.64;106475;1278;22629;-57
2023/03/03 01:15:35;;;;;;;;;;;;;;;0.17;92.67;100753.64;106472;1276;25443;-55
2023/03/03 01:18:05;;;;;;;;;;;;;;;0.18;92.75;100754.12;106352;1271;22998;-55
2023/03/03 01:20:34;;;;;;;;;;;;;;;0.18;92.60;100750.73;106314;1255;24358;-57
2023/03/03 01:23:03;;;;;;;;;;;;;;;0.18;92.56;100749.96;106394;1278;25622;-57
2023/03/03 01:25:32;;;;;;;;;;;;;;;0.16;92.55;100748.55;106399;1277;25363;-57
2023/03/03 01:28:02;;;;;;;;;;;;;;;0.15;92.55;100745.27;106345;1267;25618;-55
2023/03/03 01:30:31;;;;;;;;;;;;;;;0.13;92.59;100738.67;106369;1272;24308;-57
2023/03/03 01:33:00;;;;;;;;;;;;;;;0.12;92.56;100734.69;106257;1264;22614;-58
2023/03/03 01:35:30;;;;;;;;;;;;;;;0.13;92.47;100734.12;106268;1278;26738;-55
2023/03/03 01:37:59;;;;;;;;;;;;;;;0.11;92.45;100730.13;106329;1267;22570;-55
2023/03/03 01:40:30;;;;;;;;;;;;;;;0.09;92.48;100730.52;106344;1267;22522;-58
2023/03/03 01:43:00;;;;;;;;;;;;;;;0.06;92.49;100727.55;106396;1277;24247;-56
2023/03/03 01:45:31;;;;;;;;;;;;;;;0.00;92.47;100722.48;106346;1264;22660;-58
2023/03/03 01:48:04;;;;;;;;;;;;;;;-0.06;92.46;100720.37;106273;1271;25101;-57
2023/03/03 01:50:36;;;;;;;;;;;;;;;-0.10;92.44;100723.36;106365;1264;22626;-56
2023/03/03 01:53:10;;;;;;;;;;;;;;;-0.13;92.72;100719.60;106368;1277;22576;-58
2023/03/03 01:55:41;;;;;;;;;;;;;;;-0.15;92.89;100713.33;106326;1277;26560;-55
2023/03/03 01:58:11;;;;;;;;;;;;;;;-0.16;92.98;100713.48;106308;1263;22508;-57
2023/03/03 02:00:42;;;;;;;;;;;;;;;-0.17;93.06;100709.02;106414;1278;22635;-56
2023/03/03 02:03:11;;;;;;;;;;;;;;;-0.19;93.06;100709.88;106323;1277;25403;-57
2023/03/03 02:05:41;;;;;;;;;;;;;;;-0.18;93.11;100711.60;106426;1271;24247;-54
2023/03/03 02:08:12;;;;;;;;;;;;;;;-0.17;93.21;100709.34;106409;1277;25388;-55
2023/03/03 02:10:41;;;;;;;;;;;;;;;-0.18;93.31;100708.86;106747;1272;24205;-56
2023/03/03 02:13:10;;;;;;;;;;;;;;;-0.19;93.15;100702.27;106375;1264;22612;-57
2023/03/03 02:15:40;;;;;;;;;;;;;;;-0.18;93.22;100700.88;106356;1272;22509;-56
2023/03/03 02:18:11;;;;;;;;;;;;;;;-0.18;93.18;100700.48;106341;1278;22988;-57
2023/03/03 02:20:45;;;;;;;;;;;;;;;-0.19;93.25;100697.73;106371;1275;25376;-57
2023/03/03 02:23:18;;;;;;;;;;;;;;;-0.21;93.08;100689.59;106375;1277;22509;-56
2023/03/03 02:25:52;;;;;;;;;;;;;;;-0.24;93.06;100680.42;106320;1278;26628;-55
2023/03/03 02:28:22;;;;;;;;;;;;;;;-0.24;93.29;100679.88;106325;1278;22564;-55
2023/03/03 02:30:54;;;;;;;;;;;;;;;-0.25;93.05;100687.02;106327;1274;22985;-56
2023/03/03 02:33:23;;;;;;;;;;;;;;;-0.25;93.08;100694.92;106300;1263;25497;-57
2023/03/03 02:35:52;;;;;;;;;;;;;;;-0.27;93.07;100694.06;106257;1264;22589;-55
2023/03/03 02:38:25;;;;;;;;;;;;;;;-0.30;93.24;100691.48;106351;1278;22520;-54
2023/03/03 02:40:59;;;;;;;;;;;;;;;-0.30;93.61;100701.60;106438;1278;25146;-57
2023/03/03 02:43:32;;;;;;;;;;;;;;;-0.33;93.60;100698.55;106513;1271;22604;-57
2023/03/03 02:46:01;;;;;;;;;;;;;;;-0.33;93.61;100700.60;106227;1278;24439;-56
2023/03/03 02:48:31;;;;;;;;;;;;;;;-0.33;93.63;100701.69;106370;1278;24351;-58
2023/03/03 02:51:00;;;;;;;;;;;;;;;-0.33;93.68;100702.01;106367;1275;24373;-57
2023/03/03 02:53:29;;;;;;;;;;;;;;;-0.34;93.92;100709.99;106367;1260;25283;-56
2023/03/03 02:55:59;;;;;;;;;;;;;;;-0.38;93.79;100716.56;106385;1270;22515;-57
2023/03/03 02:58:28;;;;;;;;;;;;;;;-0.42;93.99;100714.23;106351;1277;22842;-58
2023/03/03 03:00:57;;;;;;;;;;;;;;;-0.45;94.55;100724.73;106212;1275;25610;-58
2023/03/03 03:03:26;;;;;;;;;;;;;;;-0.49;94.77;100731.95;106254;1271;24267;-55
2023/03/03 03:05:55;;;;;;;;;;;;;;;-0.51;94.85;100736.34;106334;1278;22491;-55
2023/03/03 03:08:24;;;;;;;;;;;;;;;-0.55;95.13;100738.30;106254;1278;22501;-56
2023/03/03 03:10:55;;;;;;;;;;;;;;;-0.57;95.25;100734.14;106265;1278;24315;-55
2023/03/03 03:13:25;;;;;;;;;;;;;;;-0.59;95.41;100730.77;106276;1278;22516;-57
2023/03/03 03:15:55;;;;;;;;;;;;;;;-0.60;95.29;100731.40;106360;1278;22506;-55
2023/03/03 03:18:24;;;;;;;;;;;;;;;-0.61;95.49;100729.29;106242;1274;25335;-57
2023/03/03 03:20:53;;;;;;;;;;;;;;;-0.63;95.93;100728.80;106395;1265;24337;-55
2023/03/03 03:23:25;;;;;;;;;;;;;;;-0.64;95.77;100726.30;106350;1278;25355;-56
2023/03/03 03:25:54;;;;;;;;;;;;;;;-0.64;95.73;100718.00;106288;1278;25488;-55
2023/03/03 03:28:24;;;;;;;;;;;;;;;-0.65;95.68;100713.77;106255;1278;22502;-57
2023/03/03 03:30:53;;;;;;;;;;;;;;;-0.65;95.64;100709.55;106250;1278;22582;-57
2023/03/03 03:33:22;;;;;;;;;;;;;;;-0.63;95.66;100703.36;106244;1265;22506;-57
2023/03/03 03:35:52;;;;;;;;;;;;;;;-0.61;95.77;100700.61;106248;1278;25811;-58
2023/03/03 03:38:21;;;;;;;;;;;;;;;-0.61;95.79;100692.70;106368;1264;24241;-58
2023/03/03 03:40:50;;;;;;;;;;;;;;;-0.60;95.77;100688.62;106353;1278;22509;-58
2023/03/03 03:43:20;;;;;;;;;;;;;;;-0.59;95.70;100690.59;106396;1278;22555;-58
2023/03/03 03:45:49;;;;;;;;;;;;;;;-0.58;95.79;100694.17;106418;1265;22662;-56
2023/03/03 03:48:19;;;;;;;;;;;;;;;-0.57;95.86;100695.12;106204;1267;26530;-56
2023/03/03 03:50:48;;;;;;;;;;;;;;;-0.56;95.80;100698.34;106279;1264;22503;-58
2023/03/03 03:53:17;;;;;;;;;;;;;;;-0.56;95.93;100701.45;106384;1270;24287;-56
2023/03/03 03:55:47;;;;;;;;;;;;;;;-0.58;96.16;100704.67;106471;1277;25520;-57
2023/03/03 03:58:17;;;;;;;;;;;;;;;-0.60;96.26;100708.05;106259;1265;22510;-56
2023/03/03 04:00:47;;;;;;;;;;;;;;;-0.61;96.42;100710.10;106325;1274;22504;-58
2023/03/03 04:03:16;;;;;;;;;;;;;;;-0.63;96.62;100709.07;106244;1275;22495;-56
2023/03/03 04:05:45;;;;;;;;;;;;;;;-0.65;96.54;100706.17;106246;1274;24251;-58
2023/03/03 04:08:14;;;;;;;;;;;;;;;-0.64;96.53;100709.77;106193;1278;22579;-58
2023/03/03 04:10:43;;;;;;;;;;;;;;;-0.64;96.59;100721.29;106212;1278;22555;-57
2023/03/03 04:13:12;;;;;;;;;;;;;;;-0.64;96.63;100722.62;106212;1275;25352;-58
2023/03/03 04:15:42;;;;;;;;;;;;;;;-0.65;96.76;100727.64;106202;1271;22649;-58
2023/03/03 04:18:12;;;;;;;;;;;;;;;-0.64;96.80;100728.66;106319;1257;22623;-58
2023/03/03 04:20:41;;;;;;;;;;;;;;;-0.66;96.96;100728.66;106549;1274;24224;-56
2023/03/03 04:23:14;;;;;;;;;;;;;;;-0.68;96.73;100726.08;106226;1272;22505;-58
2023/03/03 04:25:45;;;;;;;;;;;;;;;-0.69;96.63;100734.53;106334;1278;22503;-57
2023/03/03 04:28:15;;;;;;;;;;;;;;;-0.69;96.83;100742.21;106215;1265;24249;-56
2023/03/03 04:30:45;;;;;;;;;;;;;;;-0.71;97.31;100744.23;106219;1278;23989;-56
2023/03/03 04:33:14;;;;;;;;;;;;;;;-0.73;97.33;100744.88;106434;1278;25658;-58
2023/03/03 04:35:43;;;;;;;;;;;;;;;-0.75;97.05;100741.58;106230;1274;24240;-56
2023/03/03 04:38:12;;;;;;;;;;;;;;;-0.74;96.90;100735.08;106228;1278;24329;-55
2023/03/03 04:40:42;;;;;;;;;;;;;;;-0.74;97.06;100742.67;106279;1264;25531;-57
2023/03/03 04:43:11;;;;;;;;;;;;;;;-0.75;97.12;100743.52;106378;1278;22501;-55
2023/03/03 04:45:40;;;;;;;;;;;;;;;-0.76;97.47;100753.09;106614;1262;24370;-58
2023/03/03 04:48:10;;;;;;;;;;;;;;;-0.79;97.81;100758.10;106223;1271;25451;-56
2023/03/03 04:50:39;;;;;;;;;;;;;;;-0.85;97.63;100759.02;106391;1271;24475;-58
2023/03/03 04:53:08;;;;;;;;;;;;;;;-0.89;97.24;100756.75;106209;1272;25326;-57
2023/03/03 04:55:37;;;;;;;;;;;;;;;-0.89;97.10;100752.84;106316;1276;23163;-56
2023/03/03 04:58:09;;;;;;;;;;;;;;;-0.90;97.37;100751.73;106499;1265;22633;-57
2023/03/03 05:00:38;;;;;;;;;;;;;;;-0.90;97.81;100747.59;106362;1274;26470;-54
2023/03/03 05:03:08;;;;;;;;;;;;;;;-0.91;97.75;100753.54;106318;1264;22610;-61
2023/03/03 05:05:38;;;;;;;;;;;;;;;-0.92;97.52;100739.83;106158;1277;22501;-54
2023/03/03 05:08:07;;;;;;;;;;;;;;;-0.93;97.24;100742.88;106346;1277;22654;-57
2023/03/03 05:10:37;;;;;;;;;;;;;;;-0.94;97.27;100740.92;106327;1271;24289;-55
2023/03/03 05:13:08;;;;;;;;;;;;;;;-0.94;97.42;100743.42;106354;1264;22578;-57
2023/03/03 05:15:37;;;;;;;;;;;;;;;-0.96;97.81;100739.91;106320;1277;25508;-57
2023/03/03 05:18:06;;;;;;;;;;;;;;;-0.96;97.46;100729.34;106264;1278;24274;-56
2023/03/03 05:20:35;;;;;;;;;;;;;;;-0.95;97.33;100727.14;106208;1265;22507;-57
2023/03/03 05:23:04;;;;;;;;;;;;;;;-0.95;97.37;100730.89;106191;1278;22550;-56
2023/03/03 05:25:33;;;;;;;;;;;;;;;-0.93;97.33;100729.89;106250;1278;22726;-56
2023/03/03 05:28:03;;;;;;;;;;;;;;;-0.92;97.39;100735.05;106198;1278;22527;-56
2023/03/03 05:30:32;;;;;;;;;;;;;;;-0.92;97.51;100744.29;106220;1264;24225;-57
2023/03/03 05:33:02;;;;;;;;;;;;;;;-0.94;97.75;100747.11;106308;1274;23910;-54
2023/03/03 05:35:32;;;;;;;;;;;;;;;-0.94;97.62;100736.94;106205;1278;22962;-55
2023/03/03 05:38:02;;;;;;;;;;;;;;;-0.95;97.83;100738.73;106349;1278;24350;-56
2023/03/03 05:40:31;;;;;;;;;;;;;;;-0.97;97.57;100740.91;106455;1278;24268;-58
2023/03/03 05:43:00;;;;;;;;;;;;;;;-1.00;97.50;100737.95;106248;1271;22486;-58
2023/03/03 05:45:29;;;;;;;;;;;;;;;-1.01;97.24;100728.39;106426;1271;22737;-56
2023/03/03 05:47:59;;;;;;;;;;;;;;;-1.02;96.94;100729.41;106168;1275;22514;-55
2023/03/03 05:50:28;;;;;;;;;;;;;;;-1.02;97.23;100734.34;106161;1278;22502;-55
2023/03/03 05:52:57;;;;;;;;;;;;;;;-1.02;97.13;100731.59;106241;1278;24026;-56
2023/03/03 05:55:27;;;;;;;;;;;;;;;-1.00;97.27;100738.19;106141;1278;25273;-57
2023/03/03 05:57:56;;;;;;;;;;;;;;;-0.98;97.25;100737.16;106437;1271;22528;-57
2023/03/03 06:00:26;;;;;;;;;;;;;;;-0.96;97.61;100739.66;106335;1278;22484;-56
2023/03/03 06:02:55;;;;;;;;;;;;;;;-0.95;97.49;100745.30;106291;1278;22625;-55
2023/03/03 06:05:24;;;;;;;;;;;;;;;-0.95;97.97;100744.84;106213;1278;24235;-55
2023/03/03 06:07:53;;;;;;;;;;;;;;;-0.95;98.08;100747.42;106269;1278;24391;-56
2023/03/03 06:10:23;;;;;;;;;;;;;;;-0.95;97.94;100747.56;106528;1271;22488;-57
2023/03/03 06:12:53;;;;;;;;;;;;;;;-0.96;97.73;100749.92;106391;1275;22497;-56
2023/03/03 06:15:23;;;;;;;;;;;;;;;-0.95;97.44;100746.95;106224;1274;22499;-56
2023/03/03 06:17:52;;;;;;;;;;;;;;;-0.94;97.35;100749.94;106225;1265;22626;-55
2023/03/03 06:20:22;;;;;;;;;;;;;;;-0.94;97.36;100750.40;106179;1271;22630;-58
2023/03/03 06:22:51;;;;;;;;;;;;;;;-0.92;97.37;100746.57;106350;1278;22505;-56
2023/03/03 06:25:20;;;;;;;;;;;;;;;-0.89;97.32;100760.66;106226;1265;24272;-55
2023/03/03 06:27:49;;;;;;;;;;;;;;;-0.90;97.29;100769.91;106192;1275;24896;-56
2023/03/03 06:30:19;;;;;;;;;;;;;;;-0.91;97.27;100773.04;106281;1274;22504;-57
2023/03/03 06:32:48;;;;;;;;;;;;;;;-0.92;97.14;100779.15;106293;1268;22614;-58
2023/03/03 06:35:18;;;;;;;;;;;;;;;-0.92;97.19;100786.50;106202;1272;22629;-55
2023/03/03 06:37:49;;;;;;;;;;;;;;;-0.93;97.15;100789.02;106302;1278;24260;-55
2023/03/03 06:40:18;;;;;;;;;;;;;;;-0.96;97.30;100788.14;106196;1278;22974;-54
2023/03/03 06:42:48;;;;;;;;;;;;;;;-0.99;97.15;100784.06;106174;1265;22554;-57
2023/03/03 06:45:17;;;;;;;;;;;;;;;-1.01;97.21;100773.88;106188;1265;22502;-57
2023/03/03 06:47:46;;;;;;;;;;;;;;;-1.02;97.17;100769.58;106228;1264;24378;-56
2023/03/03 06:50:18;;;;;;;;;;;;;;;-1.04;97.22;100775.37;106558;1264;26504;-55
2023/03/03 06:52:48;;;;;;;;;;;;;;;-1.04;97.20;100768.79;106171;1271;24971;-58
2023/03/03 06:55:21;;;;;;;;;;;;;;;-1.04;96.99;100766.98;106188;1264;23497;-55
2023/03/03 06:57:50;;;;;;;;;;;;;;;-1.03;97.17;100775.67;106251;1267;22504;-57
2023/03/03 07:00:23;;;;;;;;;;;;;;;-1.03;97.27;100779.27;106207;1271;24391;-55
2023/03/03 07:02:57;;;;;;;;;;;;;;;-1.03;97.59;100779.27;106288;1265;24400;-54
2023/03/03 07:05:28;;;;;;;;;;;;;;;-1.02;97.68;100778.89;106272;1271;22556;-55
2023/03/03 07:07:57;;;;;;;;;;;;;;;-1.03;97.62;100784.67;106409;1271;25286;-58
2023/03/03 07:10:27;;;;;;;;;;;;;;;-1.03;97.76;100787.25;106587;1271;22565;-57
2023/03/03 07:13:02;;;;;;;;;;;;;;;-1.05;98.32;100788.90;106176;1264;22729;-57
2023/03/03 07:15:33;;;;;;;;;;;;;;;-1.06;98.14;100797.27;106161;1265;25345;-58
2023/03/03 07:18:07;;;;;;;;;;;;;;;-1.05;98.14;100798.84;106142;1274;25592;-54
2023/03/03 07:20:39;;;;;;;;;;;;;;;-1.04;98.67;100812.01;106159;1278;26543;-55
2023/03/03 07:23:15;;;;;;;;;;;;;;;-1.05;98.49;100813.65;106272;1265;24269;-58
2023/03/03 07:25:45;;;;;;;;;;;;;;;-1.04;98.64;100813.41;106426;1278;26530;-56
2023/03/03 07:28:20;;;;;;;;;;;;;;;-1.03;98.81;100825.07;106331;1265;22492;-57
2023/03/03 07:30:49;;;;;;;;;;;;;;;-1.04;99.14;100824.21;106189;1278;22527;-56
2023/03/03 07:33:25;;;;;;;;;;;;;;;-1.03;98.92;100827.42;106279;1278;23039;-56
2023/03/03 07:35:55;;;;;;;;;;;;;;;-1.02;98.75;100823.05;106187;1279;22530;-57
2023/03/03 07:38:29;;;;;;;;;;;;;;;-1.02;98.49;100812.33;106191;1264;24024;-56
2023/03/03 07:41:01;;;;;;;;;;;;;;;-1.03;98.40;100805.27;106317;1278;25279;-56
2023/03/03 07:43:33;;;;;;;;;;;;;;;-1.03;98.23;100807.77;106458;1278;22507;-58
2023/03/03 07:46:14;;;;;;;;;;;;;;;-1.02;98.24;100804.56;106313;1271;25124;-57
2023/03/03 07:48:44;;;;;;;;;;;;;;;-1.00;98.23;100803.40;106216;1278;26342;-57
2023/03/03 07:51:16;;;;;;;;;;;;;;;-0.99;98.16;100812.24;106448;1271;22509;-56
2023/03/03 07:53:46;;;;;;;;;;;;;;;-0.99;98.17;100808.81;106324;1264;24279;-56
2023/03/03 07:56:17;;;;;;;;;;;;;;;-0.99;98.11;100812.64;106404;1278;23166;-54
2023/03/03 07:58:46;;;;;;;;;;;;;;;-0.98;98.12;100813.98;106298;1271;25449;-55
2023/03/03 08:01:32;;;;;;;;;;;;;;;-0.98;98.03;100806.54;106284;1264;22510;-54
2023/03/03 08:04:01;;;;;;;;;;;;;;;-0.97;97.89;100807.09;106238;1275;25211;-55
2023/03/03 08:06:43;;;;;;;;;;;;;;;-0.96;97.87;100801.92;106282;1265;22497;-57
2023/03/03 08:09:28;;;;;;;;;;;;;;;-0.95;97.81;100800.52;106329;1278;23608;-54
2023/03/03 08:11:59;;;;;;;;;;;;;;;-0.94;97.64;100806.92;106361;1275;24979;-55
2023/03/03 08:14:30;;;;;;;;;;;;;;;-0.93;97.69;100802.00;106313;1278;24420;-57
2023/03/03 08:16:59;;;;;;;;;;;;;;;-0.93;97.64;100805.45;106275;1278;22504;-57
2023/03/03 08:19:30;;;;;;;;;;;;;;;-0.96;97.59;100807.64;106221;1278;23209;-56
2023/03/03 08:22:03;;;;;;;;;;;;;;;-0.98;97.58;100808.41;106260;1271;24247;-56
2023/03/03 08:24:32;;;;;;;;;;;;;;;-0.98;97.64;100808.02;106328;1278;22746;-57
2023/03/03 08:27:01;;;;;;;;;;;;;;;-0.97;97.63;100803.71;106279;1274;22521;-55
2023/03/03 08:29:30;;;;;;;;;;;;;;;-0.95;97.47;100801.60;106205;1278;22711;-54
2023/03/03 08:32:00;;;;;;;;;;;;;;;-0.94;97.50;100795.81;106189;1278;24219;-55
2023/03/03 08:34:29;;;;;;;;;;;;;;;-0.91;97.52;100796.77;106458;1274;25981;-56
2023/03/03 08:36:58;;;;;;;;;;;;;;;-0.91;97.51;100794.81;106213;1275;24318;-54
2023/03/03 08:39:27;;;;;;;;;;;;;;;-0.89;97.45;100794.81;106215;1274;22501;-56
2023/03/03 08:41:56;;;;;;;;;;;;;;;-0.86;97.37;100793.64;106190;1271;25329;-57
2023/03/03 08:44:26;;;;;;;;;;;;;;;-0.82;97.51;100797.88;106244;1271;22614;-57
2023/03/03 08:46:55;;;;;;;;;;;;;;;-0.80;97.44;100810.50;106318;1278;24388;-56
2023/03/03 08:49:24;;;;;;;;;;;;;;;-0.80;97.38;100809.01;106211;1268;24423;-54
2023/03/03 08:51:54;;;;;;;;;;;;;;;-0.79;97.41;100816.44;106152;1275;22556;-57
2023/03/03 08:54:23;;;;;;;;;;;;;;;-0.78;97.20;100826.86;106568;1260;202160;-57
2023/03/03 08:56:53;;;;;;;;;;;;;;;-0.77;97.18;100831.10;106329;1274;25306;-57
2023/03/03 08:59:22;;;;;;;;;;;;;;;-0.77;97.14;100831.02;106341;1265;24259;-56
2023/03/03 09:01:51;;;;;;;;;;;;;;;-0.77;97.13;100836.51;106214;1278;23027;-55
2023/03/03 09:04:21;;;;;;;;;;;;;;;-0.77;97.11;100833.29;106272;1274;25883;-57
2023/03/03 09:06:50;;;;;;;;;;;;;;;-0.77;97.08;100827.34;106328;1273;25670;-55
2023/03/03 09:09:19;;;;;;;;;;;;;;;-0.74;97.12;100827.65;106274;1278;24269;-57
2023/03/03 09:11:48;;;;;;;;;;;;;;;-0.74;96.98;100831.34;106177;1273;24398;-57
2023/03/03 09:14:19;;;;;;;;;;;;;;;-0.75;96.75;100834.70;106208;1272;22495;-56
2023/03/03 09:16:50;;;;;;;;;;;;;;;-0.75;96.85;100837.45;106341;1278;25431;-56
2023/03/03 09:19:22;;;;;;;;;;;;;;;-0.73;96.98;100843.18;106349;1271;22503;-54
2023/03/03 09:21:53;;;;;;;;;;;;;;;-0.76;96.73;100843.70;106298;1274;23867;-55
2023/03/03 09:24:27;;;;;;;;;;;;;;;-0.78;96.66;100846.13;106355;1272;22639;-57
2023/03/03 09:26:57;;;;;;;;;;;;;;;-0.77;96.82;100849.65;106281;1278;24036;-56
2023/03/03 09:29:29;;;;;;;;;;;;;;;-0.76;96.80;100850.05;106284;1265;22507;-57
2023/03/03 09:31:59;;;;;;;;;;;;;;;-0.76;96.70;100852.16;106276;1278;22520;-57
2023/03/03 09:34:38;;;;;;;;;;;;;;;-0.75;97.05;100854.75;106591;1268;24240;-59
2023/03/03 09:37:18;;;;;;;;;;;;;;;-0.78;96.85;100865.33;106521;1271;25505;-54
2023/03/03 09:39:48;;;;;;;;;;;;;;;-0.82;96.86;100865.95;106505;1278;24761;-58
2023/03/03 09:42:23;;;;;;;;;;;;;;;-0.83;96.98;100865.77;106557;1279;25487;-58
2023/03/03 09:45:16;;;;;;;;;;;;;;;-0.84;96.95;100853.55;106635;1275;25316;-56
2023/03/03 09:47:52;;;;;;;;;;;;;;;-0.81;97.21;100857.41;106259;1282;22549;-57
2023/03/03 09:50:30;;;;;;;;;;;;;;;-0.78;97.35;100855.22;106264;1282;22518;-56
2023/03/03 09:53:07;;;;;;;;;;;;;;;-0.74;97.40;100853.27;106214;1277;22503;-57
2023/03/03 09:55:41;;;;;;;;;;;;;;;-0.71;97.29;100853.28;106343;1282;22783;-57
2023/03/03 09:58:20;;;;;;;;;;;;;;;-0.70;97.14;100852.89;106355;1279;24463;-57
2023/03/03 10:00:55;;;;;;;;;;;;;;;-0.67;97.27;100858.63;106312;1277;22676;-55
2023/03/03 10:03:36;;;;;;;;;;;;;;;-0.65;97.45;100859.09;106292;1282;26532;-58
2023/03/03 10:06:11;;;;;;;;;;;;;;;-0.64;97.30;100857.14;106400;1281;22988;-57
2023/03/03 10:08:47;;;;;;;;;;;;;;;-0.61;97.50;100859.73;106297;1275;22565;-57
2023/03/03 10:11:23;;;;;;;;;;;;;;;-0.58;97.38;100857.23;106290;1267;22504;-57
2023/03/03 10:13:59;;;;;;;;;;;;;;;-0.56;97.46;100854.65;106146;1281;24266;-55
2023/03/03 10:16:37;;;;;;;;;;;;;;;-0.54;97.17;100856.85;106483;1276;22663;-54
2023/03/03 10:19:15;;;;;;;;;;;;;;;-0.54;97.24;100856.85;106269;1277;22523;-55
2023/03/03 10:21:48;;;;;;;;;;;;;;;-0.55;96.89;100855.42;106232;1282;25443;-55
2023/03/03 10:24:26;;;;;;;;;;;;;;;-0.56;96.94;100856.36;106392;1278;22495;-54
2023/03/03 10:27:10;;;;;;;;;;;;;;;-0.53;97.21;100853.63;106555;1271;24242;-57
2023/03/03 10:29:41;;;;;;;;;;;;;;;-0.48;97.37;100853.02;106608;1274;23884;-58
2023/03/03 10:32:22;;;;;;;;;;;;;;;-0.44;97.13;100858.73;106573;1272;23023;-54
2023/03/03 10:35:04;;;;;;;;;;;;;;;-0.45;96.85;100862.19;106528;1278;22623;-58
2023/03/03 10:37:39;;;;;;;;;;;;;;;-0.46;96.72;100860.15;106494;1278;25471;-57
2023/03/03 10:40:17;;;;;;;;;;;;;;;-0.45;96.91;100858.58;106665;1271;25505;-55
2023/03/03 10:42:55;;;;;;;;;;;;;;;-0.42;96.89;100853.48;106653;1265;22508;-55
2023/03/03 10:45:33;;;;;;;;;;;;;;;-0.39;96.87;100856.09;106534;1272;25401;-56
2023/03/03 10:48:25;;;;;;;;;;;;;;;-0.36;96.58;100854.27;106613;1264;24225;-57
2023/03/03 10:50:58;;;;;;;;;;;;;;;-0.32;96.39;100851.94;106516;1268;25524;-55
2023/03/03 10:53:31;;;;;;;;;;;;;;;-0.26;96.43;100849.66;106666;1264;23155;-56
2023/03/03 10:56:12;;;;;;;;;;;;;;;-0.21;96.34;100845.59;106741;1278;22511;-57
2023/03/03 10:58:52;;;;;;;;;;;;;;;-0.19;96.13;100840.27;106688;1278;25439;-56
2023/03/03 11:01:26;;;;;;;;;;;;;;;-0.16;96.15;100841.29;106584;1278;22506;-57
2023/03/03 11:04:10;;;;;;;;;;;;;;;-0.12;96.07;100841.05;106654;1272;22505;-56
2023/03/03 11:06:43;;;;;;;;;;;;;;;-0.06;96.25;100835.08;106551;1278;22501;-53
2023/03/03 11:09:18;;;;;;;;;;;;;;;-0.02;96.17;100827.09;106599;1263;25441;-56
2023/03/03 11:11:52;;;;;;;;;;;;;;;0.01;96.18;100819.41;106679;1278;22557;-54
2023/03/03 11:14:23;;;;;;;;;;;;;;;0.05;96.16;100815.95;106611;1264;24370;-54
2023/03/03 11:16:57;;;;;;;;;;;;;;;0.10;96.24;100822.37;106516;1271;25449;-56
2023/03/03 11:19:31;;;;;;;;;;;;;;;0.14;95.88;100825.50;106721;1274;25793;-56
2023/03/03 11:22:07;;;;;;;;;;;;;;;0.15;95.58;100828.08;106472;1278;22570;-57
2023/03/03 11:24:46;;;;;;;;;;;;;;;0.17;95.25;100826.84;106561;1265;24227;-57
2023/03/03 11:27:23;;;;;;;;;;;;;;;0.17;95.14;100829.34;106516;1276;25336;-55
2023/03/03 11:29:59;;;;;;;;;;;;;;;0.18;95.10;100827.15;106700;1278;25479;-54
2023/03/03 11:32:33;;;;;;;;;;;;;;;0.21;95.19;100819.53;106637;1276;24299;-53
2023/03/03 11:35:13;;;;;;;;;;;;;;;0.24;95.05;100815.60;106609;1271;23052;-59
2023/03/03 11:37:46;;;;;;;;;;;;;;;0.31;95.15;100811.50;106723;1278;25270;-57
2023/03/03 11:40:18;;;;;;;;;;;;;;;0.35;94.84;100812.67;106491;1278;25201;-58
2023/03/03 11:42:53;;;;;;;;;;;;;;;0.39;95.16;100808.12;106344;1276;24248;-57
2023/03/03 11:45:26;;;;;;;;;;;;;;;0.44;94.99;100802.99;106612;1278;25370;-57
2023/03/03 11:47:59;;;;;;;;;;;;;;;0.46;94.55;100805.04;106466;1278;26695;-60
2023/03/03 11:50:31;;;;;;;;;;;;;;;0.46;94.32;100803.94;106537;1278;22505;-56
2023/03/03 11:53:07;;;;;;;;;;;;;;;0.49;94.21;100804.87;106663;1278;22506;-58
2023/03/03 11:55:38;;;;;;;;;;;;;;;0.53;94.27;100809.95;106645;1278;22527;-54
2023/03/03 11:58:13;;;;;;;;;;;;;;;0.58;94.24;100810.50;106601;1278;24206;-57
2023/03/03 12:00:48;;;;;;;;;;;;;;;0.60;94.21;100810.10;106546;1278;22579;-56
2023/03/03 12:03:29;;;;;;;;;;;;;;;0.61;94.01;100805.61;106520;1278;24270;-55
2023/03/03 12:06:08;;;;;;;;;;;;;;;0.62;93.90;100802.70;106540;1275;22494;-56
2023/03/03 12:08:42;;;;;;;;;;;;;;;0.62;93.69;100801.77;106675;1275;24272;-54
2023/03/03 12:11:17;;;;;;;;;;;;;;;0.64;93.75;100801.67;106608;1278;25259;-54
2023/03/03 12:13:52;;;;;;;;;;;;;;;0.65;93.62;100801.04;106686;1274;22608;-57
2023/03/03 12:16:24;;;;;;;;;;;;;;;0.64;93.62;100796.88;106568;1275;22640;-57
2023/03/03 12:19:03;;;;;;;;;;;;;;;0.65;93.68;100792.73;106564;1272;25213;-55
2023/03/03 12:21:46;;;;;;;;;;;;;;;0.67;93.77;100796.09;106491;1278;22507;-54
2023/03/03 12:24:24;;;;;;;;;;;;;;;0.72;93.99;100791.91;106561;1266;23685;-57
2023/03/03 12:26:56;;;;;;;;;;;;;;;0.75;93.85;100794.65;106628;1272;25937;-57
2023/03/03 12:29:33;;;;;;;;;;;;;;;0.78;93.86;100795.02;106463;1272;24253;-57
2023/03/03 12:32:10;;;;;;;;;;;;;;;0.80;93.78;100796.59;106528;1278;22570;-55
2023/03/03 12:34:43;;;;;;;;;;;;;;;0.82;93.63;100796.35;106548;1278;24312;-56
2023/03/03 12:37:18;;;;;;;;;;;;;;;0.84;93.51;100794.29;106531;1263;24221;-54
2023/03/03 12:39:52;;;;;;;;;;;;;;;0.85;93.35;100788.48;106644;1274;22670;-59
2023/03/03 12:42:28;;;;;;;;;;;;;;;0.85;93.18;100785.25;106592;1263;25393;-56
2023/03/03 12:45:05;;;;;;;;;;;;;;;0.88;93.34;100784.45;106469;1273;24150;-57
2023/03/03 12:47:37;;;;;;;;;;;;;;;0.92;93.53;100785.06;106575;1278;22881;-57
2023/03/03 12:50:23;;;;;;;;;;;;;;;0.94;93.27;100788.98;106765;1278;23021;-56
2023/03/03 12:52:58;;;;;;;;;;;;;;;0.93;93.04;100788.05;106563;1278;24369;-58
2023/03/03 12:55:35;;;;;;;;;;;;;;;0.93;93.07;100786.24;106770;1268;22507;-59